createdAt,value
2023-04-28T01:47:46.299Z,0.80
2023-04-28T01:50:31.559Z,0.98
2023-04-28T01:53:00.523Z,0.80
2023-04-28T01:56:23.617Z,1.25
2023-04-28T01:59:27.829Z,1.00
2023-04-28T02:02:33.453Z,1.45
2023-04-28T02:05:20.224Z,0.77
2023-04-28T02:08:06.592Z,1.20
2023-04-28T02:10:53.148Z,0.93
2023-04-28T02:14:16.780Z,0.88
2023-04-28T02:16:44.928Z,0.80
2023-04-28T02:26:30.175Z,1.40
2023-04-28T02:28:57.988Z,0.88
2023-04-28T02:32:21.213Z,0.82
2023-04-28T02:35:26.008Z,1.40
2023-04-28T02:37:53.827Z,1.60
2023-04-28T02:40:59.098Z,1.10
2023-04-28T02:44:22.325Z,1.17
2023-04-28T02:46:50.191Z,1.35
2023-04-28T02:49:54.366Z,1.13
2023-04-28T02:52:59.790Z,1.20
2023-04-28T02:55:27.959Z,1.38
2023-04-28T02:58:33.333Z,1.27
2023-04-28T03:01:19.647Z,1.50
2023-04-28T03:08:11.124Z,1.20
2023-04-28T03:10:38.957Z,1.58
2023-04-28T03:13:24.374Z,1.20
2023-04-28T03:15:53.633Z,1.27
2023-04-28T03:21:49.432Z,1.48
2023-04-28T03:24:54.918Z,1.40
2023-04-28T03:28:17.920Z,1.08
2023-04-28T03:31:23.819Z,1.25
2023-04-28T03:34:47.173Z,1.00
2023-04-28T03:37:51.688Z,1.23
2023-04-28T03:40:57.248Z,1.02
2023-04-28T03:44:20.128Z,0.95
2023-04-28T03:47:26.281Z,1.30
2023-04-28T03:50:30.521Z,1.85
2023-04-28T03:53:17.275Z,1.17
2023-04-28T03:56:03.534Z,0.88
2023-04-28T03:58:48.894Z,1.60
2023-04-28T04:01:16.867Z,1.30
2023-04-28T04:04:22.487Z,1.35
2023-04-28T04:10:58.773Z,1.30
2023-04-28T04:14:03.075Z,1.58
2023-04-28T04:16:51.454Z,1.23
2023-04-28T04:19:37.983Z,1.67
2023-04-28T04:22:26.248Z,1.23
2023-04-28T04:24:54.075Z,1.20
2023-04-28T04:27:58.271Z,1.38
2023-04-28T04:33:55.216Z,1.83
2023-04-28T04:36:59.612Z,1.48
2023-04-28T04:40:05.258Z,1.13
2023-04-28T04:43:28.718Z,1.60
2023-04-28T04:46:15.405Z,1.17
2023-04-28T04:49:20.504Z,1.23
2023-04-28T04:52:25.637Z,1.65
2023-04-28T04:55:49.264Z,0.90
2023-04-28T04:58:54.777Z,1.70
2023-04-28T05:01:42.272Z,1.65
2023-04-28T05:04:29.121Z,1.00
2023-04-28T05:07:15.238Z,1.40
2023-04-28T05:10:20.673Z,1.45
2023-04-28T05:13:07.347Z,1.40
2023-04-28T05:16:31.250Z,1.15
2023-04-28T05:19:18.278Z,1.60
2023-04-28T05:22:04.979Z,1.23
2023-04-28T05:24:51.790Z,1.20
2023-04-28T05:27:56.056Z,1.42
2023-04-28T05:30:43.411Z,1.73
2023-04-28T05:33:49.945Z,1.08
2023-04-28T05:36:38.568Z,1.27
2023-04-28T05:39:24.573Z,1.23
2023-04-28T05:42:29.761Z,1.00
2023-04-28T05:45:16.246Z,1.00
2023-04-28T05:48:02.680Z,1.30
2023-04-28T05:51:08.048Z,1.48
2023-04-28T05:54:13.596Z,1.15
2023-04-28T05:56:41.832Z,1.42
2023-04-28T05:59:09.754Z,1.02
2023-04-28T06:01:56.281Z,1.40
2023-04-28T06:05:01.836Z,1.55
2023-04-28T06:07:50.192Z,1.30
2023-04-28T06:10:55.375Z,1.35
2023-04-28T06:13:43.404Z,1.38
2023-04-28T06:16:47.403Z,1.35
2023-04-28T06:19:52.243Z,1.25
2023-04-28T06:22:56.689Z,1.77
2023-04-28T06:25:43.028Z,1.42
2023-04-28T06:28:13.189Z,1.55
2023-04-28T06:31:18.295Z,1.85
2023-04-28T06:34:05.247Z,1.10
2023-04-28T06:37:28.326Z,1.73
2023-04-28T06:40:33.164Z,1.25
2023-04-28T06:43:19.783Z,1.52
2023-04-28T06:45:48.296Z,1.17
2023-04-28T06:48:52.313Z,1.25
2023-04-28T06:52:16.318Z,1.33
2023-04-28T06:55:39.387Z,1.48
2023-04-28T06:58:26.242Z,1.55
2023-04-28T07:01:11.872Z,1.55
2023-04-28T07:03:58.051Z,1.27
2023-04-28T07:06:45.000Z,2.00
2023-04-28T07:09:12.982Z,1.50
2023-04-28T07:11:58.375Z,1.52
2023-04-28T07:14:45.454Z,1.60
2023-04-28T07:17:49.428Z,1.70
2023-04-28T07:20:55.318Z,1.30
2023-04-28T07:23:41.860Z,1.40
2023-04-28T07:27:04.948Z,1.70
2023-04-28T07:30:25.883Z,1.50
2023-04-28T07:33:14.299Z,1.48
2023-04-28T07:35:42.358Z,1.63
2023-04-28T07:38:29.262Z,1.90
2023-04-28T07:41:16.137Z,1.75
2023-04-28T07:44:20.486Z,1.77
2023-04-28T07:47:25.404Z,1.55
2023-04-28T07:50:31.097Z,1.85
2023-04-28T07:56:48.324Z,1.40
2023-04-28T07:59:35.047Z,1.45
2023-04-28T08:02:40.300Z,1.20
2023-04-28T08:05:09.481Z,1.88
2023-04-28T08:08:15.253Z,1.63
2023-04-28T08:11:21.311Z,1.60
2023-04-28T08:14:26.226Z,1.85
2023-04-28T08:16:54.649Z,1.23
2023-04-28T08:19:41.086Z,1.80
2023-04-28T08:22:46.311Z,1.77
2023-04-28T08:25:52.445Z,1.77
2023-04-28T08:28:20.364Z,1.65
2023-04-28T08:31:07.235Z,2.00
2023-04-28T08:34:11.584Z,2.33
2023-04-28T08:36:58.450Z,1.35
2023-04-28T08:40:02.487Z,1.50
2023-04-28T08:42:50.465Z,1.20
2023-04-28T08:45:54.604Z,1.38
2023-04-28T08:48:59.782Z,1.33
2023-04-28T08:52:05.096Z,1.55
2023-04-28T08:54:51.467Z,1.13
2023-04-28T08:57:56.451Z,1.40
2023-04-28T09:01:02.761Z,1.63
2023-04-28T09:04:09.073Z,1.60
2023-04-28T09:06:57.155Z,1.15
2023-04-28T09:09:43.631Z,1.92
2023-04-28T09:12:11.680Z,1.60
2023-04-28T09:15:16.802Z,1.40
2023-04-28T09:18:09.733Z,1.70
2023-04-28T09:21:15.713Z,1.10
2023-04-28T09:24:02.359Z,1.40
2023-04-28T09:27:10.708Z,1.73
2023-04-28T09:30:33.429Z,1.60
2023-04-28T09:36:26.951Z,1.95
2023-04-28T09:39:30.970Z,1.58
2023-04-28T09:42:35.533Z,1.63
2023-04-28T09:45:21.870Z,1.55
2023-04-28T09:48:10.685Z,1.50
2023-04-28T09:51:16.096Z,1.83
2023-04-28T09:54:43.975Z,1.70
2023-04-28T09:57:50.388Z,1.63
2023-04-28T10:00:54.972Z,1.90
2023-04-28T10:04:00.441Z,1.83
2023-04-28T10:07:05.597Z,2.30
2023-04-28T10:10:28.312Z,1.98
2023-04-28T10:13:51.637Z,1.85
2023-04-28T10:16:39.357Z,2.40
2023-04-28T10:19:43.382Z,2.40
2023-04-28T10:22:48.094Z,2.03
2023-04-28T10:28:46.578Z,2.30
2023-04-28T10:31:51.592Z,2.20
2023-04-28T10:34:44.275Z,2.55
2023-04-28T10:37:29.468Z,2.28
2023-04-28T10:40:51.883Z,2.47
2023-04-28T10:44:14.519Z,2.28
2023-04-28T10:47:38.591Z,2.33
2023-04-28T10:50:38.450Z,2.25
2023-04-28T10:53:58.281Z,2.70
2023-04-28T10:57:21.306Z,2.05
2023-04-28T11:00:08.339Z,1.77
2023-04-28T11:06:21.230Z,1.75
2023-04-28T11:09:26.585Z,1.70
2023-04-28T11:12:24.639Z,1.83
2023-04-28T11:14:52.492Z,1.35
2023-04-28T11:18:15.109Z,1.63
2023-04-28T11:21:02.218Z,1.45
2023-04-28T11:23:50.238Z,1.60
2023-04-28T11:26:37.046Z,1.50
2023-04-28T11:29:49.388Z,1.10
2023-04-28T11:32:54.699Z,1.40
2023-04-28T11:35:40.447Z,1.20
2023-04-28T11:38:44.717Z,0.90
2023-04-28T11:41:32.211Z,1.00
2023-04-28T11:44:36.620Z,0.93
2023-04-28T11:47:29.664Z,1.15
2023-04-28T11:50:34.869Z,1.25
2023-04-28T11:53:40.227Z,1.20
2023-04-28T11:56:45.878Z,0.85
2023-04-28T11:59:15.394Z,1.25
2023-04-28T12:02:19.837Z,0.88
2023-04-28T12:05:07.559Z,1.20
2023-04-28T12:08:31.118Z,1.05
2023-04-28T12:11:30.380Z,1.10
2023-04-28T12:14:41.362Z,1.60
2023-04-28T12:17:30.424Z,1.45
2023-04-28T12:20:53.324Z,1.58
2023-04-28T12:23:57.172Z,1.45
2023-04-28T12:30:50.027Z,0.93
2023-04-28T12:33:55.378Z,1.33
2023-04-28T12:36:44.908Z,1.63
2023-04-28T12:39:51.464Z,1.58
2023-04-28T12:42:57.494Z,1.02
2023-04-28T12:49:32.249Z,1.52
2023-04-28T12:52:37.726Z,1.35
2023-04-28T12:55:26.420Z,1.23
2023-04-28T12:58:15.810Z,1.45
2023-04-28T13:01:23.164Z,1.70
2023-04-28T13:04:27.953Z,1.55
2023-04-28T13:07:32.975Z,1.73
2023-04-28T13:10:21.252Z,1.40
2023-04-28T13:13:26.602Z,1.10
2023-04-28T13:16:15.637Z,1.20
2023-04-28T13:19:19.832Z,0.98
2023-04-28T13:22:24.880Z,1.10
2023-04-28T13:25:12.420Z,1.17
2023-04-28T13:27:57.947Z,1.10
2023-04-28T13:31:03.623Z,1.10
2023-04-28T13:33:32.128Z,1.20
2023-04-28T13:36:36.300Z,1.17
2023-04-28T13:39:21.607Z,0.90
2023-04-28T13:42:07.563Z,0.70
2023-04-28T13:44:54.030Z,0.70
2023-04-28T13:48:00.442Z,0.95
2023-04-28T13:51:09.234Z,1.05
2023-04-28T13:53:55.730Z,1.00
2023-04-28T13:59:52.312Z,0.77
2023-04-28T14:02:39.571Z,1.10
2023-04-28T14:05:09.966Z,1.05
2023-04-28T14:07:55.586Z,1.33
2023-04-28T14:11:18.346Z,1.40
2023-04-28T14:14:05.618Z,0.98
2023-04-28T14:17:11.250Z,0.98
2023-04-28T14:20:34.350Z,0.90
2023-04-28T14:23:22.593Z,0.63
2023-04-28T14:26:27.108Z,0.82
2023-04-28T14:29:13.778Z,0.70
2023-04-28T14:32:21.277Z,0.85
2023-04-28T14:35:25.676Z,1.05
2023-04-28T14:37:54.286Z,0.90
2023-04-28T14:40:59.751Z,0.60
2023-04-28T14:44:22.901Z,0.60
2023-04-28T14:47:08.134Z,0.60
2023-04-28T14:49:55.481Z,0.60
2023-04-28T14:52:42.515Z,1.08
2023-04-28T14:55:29.477Z,0.60
2023-04-28T14:58:17.518Z,0.40
2023-04-28T15:01:22.304Z,0.70
2023-04-28T15:04:07.716Z,0.50
2023-04-28T15:07:30.662Z,0.50
2023-04-28T15:14:04.701Z,0.63
2023-04-28T15:16:52.447Z,0.40
2023-04-28T15:19:57.272Z,0.40
2023-04-28T15:23:02.611Z,0.40
2023-04-28T15:26:08.487Z,0.60
2023-04-28T15:29:13.007Z,0.43
2023-04-28T15:32:00.983Z,0.70
2023-04-28T15:34:48.024Z,0.63
2023-04-28T15:38:11.558Z,0.90
2023-04-28T15:41:16.080Z,0.55
2023-04-28T15:44:40.502Z,0.28
2023-04-28T15:47:10.329Z,0.30
2023-04-28T15:50:14.461Z,0.32
2023-04-28T15:53:18.928Z,0.30
2023-04-28T15:56:05.855Z,0.30
2023-04-28T15:59:10.469Z,0.40
2023-04-28T16:01:55.835Z,0.40
2023-04-28T16:05:02.518Z,0.43
2023-04-28T16:07:49.398Z,0.30
2023-04-28T16:10:53.926Z,0.40
2023-04-28T16:13:22.231Z,0.30
2023-04-28T16:19:56.063Z,0.50
2023-04-28T16:23:20.520Z,0.28
2023-04-28T16:25:50.796Z,0.17
2023-04-28T16:28:55.396Z,0.30
2023-04-28T16:31:40.768Z,0.30
2023-04-28T16:37:55.718Z,0.40
2023-04-28T16:40:23.615Z,0.50
2023-04-28T16:43:47.516Z,0.32
2023-04-28T16:46:35.558Z,0.40
2023-04-28T16:49:40.505Z,0.30
2023-04-28T16:52:44.845Z,0.50
2023-04-28T16:55:31.666Z,0.40
2023-04-28T16:58:54.613Z,0.35
2023-04-28T17:02:00.215Z,0.50
2023-04-28T17:05:05.995Z,0.60
2023-04-28T17:07:33.872Z,0.45
2023-04-28T17:10:38.944Z,0.40
2023-04-28T17:14:01.852Z,0.30
2023-04-28T17:16:48.283Z,0.40
2023-04-28T17:19:53.599Z,0.47
2023-04-28T17:22:57.639Z,0.40
2023-04-28T17:29:33.555Z,0.43
2023-04-28T17:32:37.887Z,0.30
2023-04-28T17:36:01.124Z,0.40
2023-04-28T17:38:48.969Z,0.43
2023-04-28T17:41:35.682Z,0.30
2023-04-28T17:44:39.828Z,0.40
2023-04-28T17:48:03.551Z,0.70
2023-04-28T17:51:07.937Z,0.73
2023-04-28T17:53:56.672Z,0.30
2023-04-28T17:57:02.077Z,0.30
2023-04-28T17:59:47.413Z,0.30
2023-04-28T18:02:15.404Z,0.40
2023-04-28T18:05:23.087Z,0.38
2023-04-28T18:11:37.990Z,0.40
2023-04-28T18:14:43.359Z,0.70
2023-04-28T18:17:29.866Z,0.40
2023-04-28T18:19:57.832Z,0.68
2023-04-28T18:22:44.529Z,0.40
2023-04-28T18:25:30.018Z,0.57
2023-04-28T18:28:34.538Z,0.50
2023-04-28T18:31:23.979Z,0.30
2023-04-28T18:34:28.251Z,0.63
2023-04-28T18:37:32.462Z,0.38
2023-04-28T18:40:36.586Z,0.60
2023-04-28T18:43:21.844Z,0.60
2023-04-28T18:49:03.348Z,0.50
2023-04-28T18:51:49.919Z,0.52
2023-04-28T18:54:54.506Z,0.60
2023-04-28T18:57:22.834Z,0.70
2023-04-28T19:00:46.247Z,0.47
2023-04-28T19:03:16.380Z,0.30
2023-04-28T19:06:39.347Z,0.73
2023-04-28T19:09:44.758Z,0.52
2023-04-28T19:12:12.573Z,0.65
2023-04-28T19:15:16.801Z,0.45
2023-04-28T19:18:21.304Z,0.50
2023-04-28T19:20:52.554Z,0.60
2023-04-28T19:23:42.647Z,0.50
2023-04-28T19:26:46.589Z,0.40
2023-04-28T19:29:52.230Z,0.50
2023-04-28T19:32:41.471Z,0.65
2023-04-28T19:35:10.167Z,0.60
2023-04-28T19:41:29.568Z,0.57
2023-04-28T19:44:16.713Z,0.65
2023-04-28T19:47:03.761Z,0.75
2023-04-28T19:50:10.050Z,0.93
2023-04-28T19:52:37.917Z,0.70
2023-04-28T19:55:06.893Z,0.68
2023-04-28T19:57:57.120Z,0.95
2023-04-28T20:01:02.647Z,0.80
2023-04-28T20:04:26.001Z,1.00
2023-04-28T20:07:30.425Z,1.13
2023-04-28T20:10:35.850Z,0.93
2023-04-28T20:13:41.364Z,1.20
2023-04-28T20:16:46.112Z,0.98
2023-04-28T20:19:31.862Z,1.45
2023-04-28T20:22:17.171Z,1.23
2023-04-28T20:25:21.711Z,1.15
2023-04-28T20:28:06.916Z,1.40
2023-04-28T20:31:13.133Z,1.33
2023-04-28T20:34:17.266Z,1.30
2023-04-28T20:37:06.642Z,1.33
2023-04-28T20:40:30.024Z,1.55
2023-04-28T20:43:17.282Z,1.70
2023-04-28T20:46:08.801Z,1.20
2023-04-28T20:49:13.415Z,1.30
2023-04-28T20:52:01.259Z,1.38
2023-04-28T20:54:46.511Z,1.50
2023-04-28T20:57:50.866Z,1.08
2023-04-28T21:00:56.412Z,1.40
2023-04-28T21:03:25.812Z,0.75
2023-04-28T21:05:53.721Z,1.08
2023-04-28T21:08:57.811Z,1.10
2023-04-28T21:11:44.453Z,1.60
2023-04-28T21:14:12.340Z,1.50
2023-04-28T21:17:17.619Z,1.40
2023-04-28T21:20:23.424Z,1.40
2023-04-28T21:23:28.880Z,1.20
2023-04-28T21:25:56.749Z,0.95
2023-04-28T21:28:43.341Z,0.82
2023-04-28T21:31:47.686Z,1.25
2023-04-28T21:34:52.110Z,1.00
2023-04-28T21:37:56.479Z,1.05
2023-04-28T21:40:44.403Z,0.85
2023-04-28T21:43:12.237Z,0.80
2023-04-28T21:45:57.735Z,1.10
2023-04-28T21:49:02.009Z,0.82
2023-04-28T21:51:48.676Z,0.70
2023-04-28T21:54:35.578Z,0.77
2023-04-28T21:57:04.837Z,0.60
2023-04-28T21:59:50.775Z,0.60
2023-04-28T22:02:37.718Z,0.57
2023-04-28T22:05:42.397Z,0.38
2023-04-28T22:09:05.406Z,0.60
2023-04-28T22:11:52.217Z,0.43
2023-04-28T22:14:41.567Z,0.40
2023-04-28T22:17:28.486Z,0.30
2023-04-28T22:20:32.609Z,0.40
2023-04-28T22:23:36.788Z,0.38
2023-04-28T22:26:41.794Z,0.25
2023-04-28T22:29:27.608Z,0.47
2023-04-28T22:31:57.866Z,0.30
2023-04-28T22:34:25.795Z,0.60
2023-04-28T22:36:53.688Z,0.50
2023-04-28T22:39:21.558Z,0.30
2023-04-28T22:41:49.387Z,0.30
2023-04-28T22:44:17.170Z,0.30
2023-04-28T22:46:45.125Z,0.30
2023-04-28T22:49:14.341Z,0.25
2023-04-28T22:51:42.157Z,0.30
2023-04-28T22:54:10.018Z,0.55
2023-04-28T22:56:37.959Z,0.38
2023-04-28T22:59:05.928Z,0.38
2023-04-28T23:01:34.004Z,0.40
2023-04-28T23:04:01.998Z,0.30
2023-04-28T23:06:32.014Z,0.30
2023-04-28T23:08:59.839Z,0.40
2023-04-28T23:11:27.638Z,0.35
2023-04-28T23:13:55.525Z,0.43
2023-04-28T23:16:23.704Z,0.50
2023-04-28T23:18:51.498Z,0.20
2023-04-28T23:21:19.371Z,0.40
2023-04-28T23:23:48.476Z,0.50
2023-04-28T23:26:16.295Z,0.47
2023-04-28T23:28:44.173Z,0.40
2023-04-28T23:31:12.144Z,0.70
2023-04-28T23:33:40.087Z,0.40
2023-04-28T23:36:08.954Z,0.60
2023-04-28T23:38:36.738Z,0.57
2023-04-28T23:41:06.505Z,0.35
2023-04-28T23:43:34.277Z,0.40
2023-04-28T23:46:06.790Z,0.52
2023-04-28T23:48:34.774Z,0.40
2023-04-28T23:51:02.566Z,0.57
2023-04-28T23:53:30.473Z,0.55
2023-04-28T23:55:58.304Z,0.38
2023-04-28T23:58:27.465Z,0.55
